createdAt,value
2019-03-31T00:01:15.535Z,27.95
2019-03-31T00:03:53.501Z,27.15
2019-03-31T00:06:31.345Z,26.33
2019-03-31T00:09:09.811Z,25.95
2019-03-31T00:11:47.567Z,26.00
2019-03-31T00:14:25.816Z,25.20
2019-03-31T00:17:03.552Z,24.67
2019-03-31T00:19:41.499Z,24.85
2019-03-31T00:22:19.831Z,24.25
2019-03-31T00:24:57.713Z,23.70
2019-03-31T00:27:35.957Z,25.30
2019-03-31T00:30:14.220Z,23.73
2019-03-31T00:32:52.639Z,23.22
2019-03-31T00:35:30.414Z,22.82
2019-03-31T00:38:08.313Z,24.10
2019-03-31T00:40:46.898Z,22.60
2019-03-31T00:43:24.750Z,21.90
2019-03-31T00:46:03.611Z,21.33
2019-03-31T00:48:45.454Z,21.17
2019-03-31T00:51:23.555Z,20.62
2019-03-31T00:54:08.338Z,20.77
2019-03-31T00:56:46.657Z,18.65
2019-03-31T00:59:24.450Z,21.42
2019-03-31T01:02:08.360Z,20.97
2019-03-31T01:04:46.498Z,20.60
2019-03-31T01:07:26.246Z,19.95
2019-03-31T01:10:07.577Z,20.55
2019-03-31T01:12:47.074Z,19.80
2019-03-31T01:15:25.250Z,20.23
2019-03-31T01:18:15.002Z,20.08
2019-03-31T01:20:53.043Z,20.23
2019-03-31T01:23:30.832Z,20.15
2019-03-31T01:26:08.859Z,20.95
2019-03-31T01:28:46.846Z,20.40
2019-03-31T01:31:28.112Z,20.62
2019-03-31T01:34:04.628Z,20.75
2019-03-31T01:36:42.530Z,21.23
2019-03-31T01:39:21.963Z,22.42
2019-03-31T01:42:00.556Z,20.02
2019-03-31T01:44:38.940Z,22.13
2019-03-31T01:47:17.194Z,22.07
2019-03-31T01:49:55.227Z,21.60
2019-03-31T01:52:33.168Z,20.52
2019-03-31T01:55:11.260Z,21.52
2019-03-31T01:57:49.171Z,22.50
2019-03-31T02:00:49.133Z,21.30
2019-03-31T02:03:27.467Z,22.05
2019-03-31T02:06:05.841Z,21.62
2019-03-31T02:08:43.568Z,22.07
2019-03-31T02:11:22.205Z,22.95
2019-03-31T02:14:00.139Z,21.33
2019-03-31T02:16:39.275Z,22.60
2019-03-31T02:19:17.852Z,22.48
2019-03-31T02:21:56.115Z,23.32
2019-03-31T02:24:33.990Z,22.65
2019-03-31T02:27:12.304Z,22.98
2019-03-31T02:29:50.556Z,22.85
2019-03-31T02:32:28.381Z,23.55
2019-03-31T02:35:17.668Z,24.05
2019-03-31T02:37:55.923Z,23.98
2019-03-31T02:40:34.099Z,22.93
2019-03-31T02:43:11.986Z,24.25
2019-03-31T02:45:50.113Z,23.32
2019-03-31T02:48:28.837Z,23.12
2019-03-31T02:51:06.698Z,22.48
2019-03-31T02:53:56.457Z,25.12
2019-03-31T02:56:35.805Z,22.90
2019-03-31T02:59:15.972Z,24.50
2019-03-31T03:01:54.986Z,25.95
2019-03-31T03:04:34.922Z,25.08
2019-03-31T03:07:15.422Z,25.55
2019-03-31T03:09:54.238Z,25.08
2019-03-31T03:12:35.552Z,25.75
2019-03-31T03:15:19.261Z,25.43
2019-03-31T03:17:57.194Z,27.45
2019-03-31T03:20:35.423Z,30.17
2019-03-31T03:23:13.364Z,29.48
2019-03-31T03:25:56.427Z,30.00
2019-03-31T03:28:30.705Z,34.70
2019-03-31T03:31:15.033Z,35.85
2019-03-31T03:33:48.568Z,37.60
2019-03-31T03:36:27.433Z,38.23
2019-03-31T03:39:07.544Z,39.53
2019-03-31T03:41:56.643Z,42.38
2019-03-31T03:44:34.382Z,44.38
2019-03-31T03:47:12.383Z,44.42
2019-03-31T03:49:50.308Z,46.25
2019-03-31T03:52:29.523Z,43.35
2019-03-31T03:55:07.546Z,43.35
2019-03-31T03:57:45.516Z,43.17
2019-03-31T04:00:23.457Z,38.55
2019-03-31T04:03:29.113Z,41.68
2019-03-31T04:05:52.506Z,41.20
2019-03-31T04:08:30.685Z,37.65
2019-03-31T04:11:25.812Z,35.40
2019-03-31T04:14:04.573Z,38.48
2019-03-31T04:16:44.185Z,37.63
2019-03-31T04:19:23.135Z,37.55
2019-03-31T04:22:01.018Z,37.05
2019-03-31T04:24:50.501Z,35.48
2019-03-31T04:27:28.754Z,38.13
2019-03-31T04:30:07.302Z,36.63
2019-03-31T04:32:44.950Z,35.50
2019-03-31T04:35:34.385Z,36.35
2019-03-31T04:38:12.815Z,34.13
2019-03-31T04:40:52.015Z,33.78
2019-03-31T04:43:30.575Z,34.30
2019-03-31T04:46:08.766Z,34.10
2019-03-31T04:48:46.591Z,35.17
2019-03-31T04:51:24.855Z,36.20
2019-03-31T04:54:03.156Z,34.10
2019-03-31T04:56:42.716Z,35.50
2019-03-31T04:59:20.903Z,34.98
2019-03-31T05:01:58.875Z,33.65
2019-03-31T05:04:37.065Z,35.63
2019-03-31T05:07:15.031Z,34.65
2019-03-31T05:09:53.011Z,35.20
2019-03-31T05:12:30.922Z,32.80
2019-03-31T05:15:09.105Z,30.27
2019-03-31T05:17:47.368Z,30.43
2019-03-31T05:20:26.551Z,30.43
2019-03-31T05:23:04.877Z,27.35
2019-03-31T05:25:43.637Z,26.42
2019-03-31T05:28:21.879Z,27.13
2019-03-31T05:30:59.814Z,25.92
2019-03-31T05:33:38.109Z,26.90
2019-03-31T05:36:16.065Z,26.73
2019-03-31T05:38:54.409Z,23.98
2019-03-31T05:41:32.175Z,23.00
2019-03-31T05:44:10.069Z,21.73
2019-03-31T05:46:48.038Z,20.77
2019-03-31T05:49:26.040Z,20.80
2019-03-31T05:52:04.206Z,18.62
2019-03-31T05:54:42.055Z,19.12
2019-03-31T05:57:20.056Z,18.42
2019-03-31T05:59:58.194Z,17.65
2019-03-31T06:02:36.251Z,17.98
2019-03-31T06:05:14.422Z,17.37
2019-03-31T06:07:52.193Z,17.05
2019-03-31T06:10:30.454Z,18.10
2019-03-31T06:13:08.306Z,16.40
2019-03-31T06:15:47.864Z,15.95
2019-03-31T06:18:26.994Z,15.60
2019-03-31T06:21:04.965Z,15.53
2019-03-31T06:23:43.398Z,16.97
2019-03-31T06:26:21.170Z,16.60
2019-03-31T06:28:59.706Z,16.80
2019-03-31T06:31:38.162Z,16.95
2019-03-31T06:34:16.076Z,17.15
2019-03-31T06:36:55.020Z,17.17
2019-03-31T06:39:34.378Z,16.93
2019-03-31T06:42:13.646Z,15.75
2019-03-31T06:44:51.720Z,16.42
2019-03-31T06:47:29.540Z,15.50
2019-03-31T06:50:08.982Z,16.37
2019-03-31T06:52:46.942Z,15.43
2019-03-31T06:55:24.911Z,14.07
2019-03-31T06:58:02.860Z,14.60
2019-03-31T07:00:41.509Z,13.22
2019-03-31T07:03:19.507Z,11.97
2019-03-31T07:05:57.836Z,11.97
2019-03-31T07:08:36.134Z,14.10
2019-03-31T07:11:14.005Z,12.93
2019-03-31T07:13:52.799Z,12.53
2019-03-31T07:16:31.004Z,11.25
2019-03-31T07:19:09.741Z,10.08
2019-03-31T07:21:48.142Z,9.73
2019-03-31T07:24:25.991Z,8.58
2019-03-31T07:27:04.755Z,7.75
2019-03-31T07:29:42.733Z,8.85
2019-03-31T07:32:20.993Z,9.00
2019-03-31T07:34:59.010Z,8.45
2019-03-31T07:37:47.186Z,8.80
2019-03-31T07:40:17.210Z,9.65
2019-03-31T07:42:55.183Z,8.53
2019-03-31T07:45:33.096Z,6.80
2019-03-31T07:48:11.066Z,7.95
2019-03-31T07:50:49.258Z,7.40
2019-03-31T07:53:27.065Z,6.50
2019-03-31T07:56:04.840Z,6.12
2019-03-31T07:58:43.107Z,5.87
2019-03-31T08:01:21.369Z,6.53
2019-03-31T08:03:59.754Z,6.40
2019-03-31T08:06:37.756Z,5.45
2019-03-31T08:09:15.801Z,5.50
2019-03-31T08:11:53.773Z,4.65
2019-03-31T08:14:32.654Z,4.45
2019-03-31T08:17:10.513Z,4.67
2019-03-31T08:19:48.257Z,4.85
2019-03-31T08:22:26.198Z,4.62
2019-03-31T08:25:04.260Z,4.83
2019-03-31T08:27:42.214Z,4.10
2019-03-31T08:30:20.371Z,4.03
2019-03-31T08:32:58.300Z,3.75
2019-03-31T08:35:46.718Z,3.65
2019-03-31T08:38:15.639Z,4.50
2019-03-31T08:40:53.571Z,4.75
2019-03-31T08:43:31.655Z,4.22
2019-03-31T08:46:09.531Z,4.08
2019-03-31T08:48:48.355Z,3.45
2019-03-31T08:51:27.043Z,3.10
2019-03-31T08:54:05.266Z,2.72
2019-03-31T08:56:43.031Z,2.50
2019-03-31T08:59:20.729Z,2.50
2019-03-31T09:01:58.660Z,2.92
2019-03-31T09:04:37.022Z,2.70
2019-03-31T09:07:15.323Z,2.12
2019-03-31T09:09:54.741Z,2.30
2019-03-31T09:12:32.776Z,2.37
2019-03-31T09:15:12.867Z,2.15
2019-03-31T09:17:53.999Z,2.30
2019-03-31T09:20:30.891Z,2.47
2019-03-31T09:23:08.673Z,2.95
2019-03-31T09:25:47.799Z,2.12
2019-03-31T09:28:26.422Z,2.17
2019-03-31T09:31:05.939Z,2.60
2019-03-31T09:33:44.765Z,3.30
2019-03-31T09:36:24.108Z,2.35
2019-03-31T09:39:01.955Z,2.50
2019-03-31T09:41:40.972Z,1.70
2019-03-31T09:44:18.686Z,2.83
2019-03-31T09:46:57.080Z,2.95
2019-03-31T09:49:36.077Z,2.00
2019-03-31T09:52:14.894Z,2.30
2019-03-31T09:54:52.850Z,1.77
2019-03-31T09:57:30.742Z,1.90
2019-03-31T10:00:10.190Z,2.20
2019-03-31T10:02:48.202Z,1.98
2019-03-31T10:05:26.051Z,2.02
2019-03-31T10:08:03.922Z,2.22
2019-03-31T10:10:41.800Z,2.02
2019-03-31T10:13:20.530Z,2.45
2019-03-31T10:15:58.436Z,1.85
2019-03-31T10:18:36.380Z,2.08
2019-03-31T10:21:14.349Z,1.90
2019-03-31T10:23:52.210Z,2.20
2019-03-31T10:26:31.987Z,1.92
2019-03-31T10:29:21.137Z,2.43
2019-03-31T10:31:59.116Z,2.37
2019-03-31T10:34:37.121Z,2.35
2019-03-31T10:37:15.520Z,2.50
2019-03-31T10:39:53.799Z,2.42
2019-03-31T10:42:31.567Z,2.47
2019-03-31T10:45:10.325Z,2.17
2019-03-31T10:47:48.278Z,1.55
2019-03-31T10:50:26.106Z,1.82
2019-03-31T10:53:04.856Z,2.10
2019-03-31T10:55:42.703Z,2.00
2019-03-31T10:58:21.011Z,2.42
2019-03-31T11:00:59.349Z,1.70
2019-03-31T11:03:48.576Z,1.92
2019-03-31T11:06:26.297Z,1.62
2019-03-31T11:09:06.599Z,2.17
2019-03-31T11:11:44.322Z,1.90
2019-03-31T11:14:22.094Z,1.82
2019-03-31T11:17:00.420Z,2.00
2019-03-31T11:19:38.744Z,2.52
2019-03-31T11:22:50.605Z,2.37
2019-03-31T11:25:30.001Z,1.92
2019-03-31T11:28:07.978Z,2.00
2019-03-31T11:30:47.133Z,2.27
2019-03-31T11:33:25.395Z,2.92
2019-03-31T11:36:03.528Z,3.75
2019-03-31T11:38:46.067Z,2.50
2019-03-31T11:41:24.777Z,1.75
2019-03-31T11:44:02.642Z,2.08
2019-03-31T11:46:40.604Z,3.05
2019-03-31T11:49:18.543Z,2.70
2019-03-31T11:51:56.352Z,3.25
2019-03-31T11:54:34.204Z,2.37
2019-03-31T11:57:12.270Z,2.17
2019-03-31T11:59:50.550Z,2.02
2019-03-31T12:02:29.570Z,2.08
2019-03-31T12:05:07.600Z,1.95
2019-03-31T12:07:47.406Z,2.80
2019-03-31T12:10:26.518Z,2.90
2019-03-31T12:13:04.612Z,2.40
2019-03-31T12:15:42.626Z,2.75
2019-03-31T12:18:20.601Z,2.37
2019-03-31T12:20:58.347Z,2.77
2019-03-31T12:23:36.423Z,2.00
2019-03-31T12:26:14.251Z,2.22
2019-03-31T12:28:51.982Z,2.25
2019-03-31T12:31:30.465Z,2.80
2019-03-31T12:34:08.332Z,2.40
2019-03-31T12:36:46.192Z,2.70
2019-03-31T12:39:24.042Z,2.55
2019-03-31T12:42:01.859Z,2.10
2019-03-31T12:44:40.411Z,2.00
2019-03-31T12:47:18.527Z,3.17
2019-03-31T12:49:56.509Z,2.47
2019-03-31T12:52:46.083Z,2.42
2019-03-31T12:55:14.658Z,2.80
2019-03-31T12:57:52.549Z,2.47
2019-03-31T13:00:30.294Z,2.30
2019-03-31T13:03:08.237Z,2.30
2019-03-31T13:05:46.147Z,1.82
2019-03-31T13:08:24.451Z,2.55
2019-03-31T13:11:02.313Z,2.12
2019-03-31T13:13:40.150Z,1.95
2019-03-31T13:16:18.362Z,2.22
2019-03-31T13:18:56.443Z,2.85
2019-03-31T13:21:34.676Z,2.30
2019-03-31T13:24:12.863Z,2.65
2019-03-31T13:26:50.700Z,1.80
2019-03-31T13:29:28.887Z,2.75
2019-03-31T13:32:07.164Z,2.50
2019-03-31T13:34:44.869Z,2.37
2019-03-31T13:37:23.104Z,3.08
2019-03-31T13:40:01.377Z,2.30
2019-03-31T13:42:39.482Z,2.72
2019-03-31T13:45:17.505Z,2.80
2019-03-31T13:47:58.484Z,2.47
2019-03-31T13:50:34.953Z,3.20
2019-03-31T13:53:16.119Z,2.40
2019-03-31T13:55:52.466Z,2.02
2019-03-31T13:58:31.039Z,2.40
2019-03-31T14:01:10.532Z,1.85
2019-03-31T14:03:48.396Z,2.83
2019-03-31T14:06:26.789Z,2.35
2019-03-31T14:09:07.554Z,2.12
2019-03-31T14:11:48.413Z,2.30
2019-03-31T14:14:24.655Z,1.98
2019-03-31T14:17:02.931Z,2.10
2019-03-31T14:19:40.719Z,1.70
2019-03-31T14:22:18.705Z,1.98
2019-03-31T14:24:56.553Z,2.40
2019-03-31T14:27:35.038Z,2.12
2019-03-31T14:30:14.668Z,2.52
2019-03-31T14:32:52.574Z,2.27
2019-03-31T14:35:30.318Z,1.85
2019-03-31T14:38:08.211Z,2.10
2019-03-31T14:40:46.518Z,1.77
2019-03-31T14:43:27.897Z,2.55
2019-03-31T14:46:04.323Z,2.05
2019-03-31T14:48:42.154Z,2.22
2019-03-31T14:51:20.524Z,1.87
2019-03-31T14:53:59.541Z,2.02
2019-03-31T14:56:38.454Z,1.75
2019-03-31T14:59:16.098Z,2.10
2019-03-31T15:01:54.165Z,2.98
2019-03-31T15:04:31.985Z,2.35
2019-03-31T15:07:09.816Z,1.67
2019-03-31T15:09:47.750Z,2.37
2019-03-31T15:12:25.715Z,2.20
2019-03-31T15:15:03.654Z,2.30
2019-03-31T15:17:42.015Z,2.15
2019-03-31T15:20:19.810Z,1.85
2019-03-31T15:22:57.716Z,2.00
2019-03-31T15:25:37.160Z,2.42
2019-03-31T15:28:15.117Z,1.55
2019-03-31T15:30:53.491Z,1.87
2019-03-31T15:33:31.950Z,3.80
2019-03-31T15:36:09.889Z,3.15
2019-03-31T15:38:48.109Z,1.75
2019-03-31T15:41:26.514Z,2.30
2019-03-31T15:44:04.439Z,2.30
2019-03-31T15:46:42.287Z,2.05
2019-03-31T15:49:20.732Z,2.50
2019-03-31T15:51:58.513Z,2.75
2019-03-31T15:54:36.856Z,2.20
2019-03-31T15:57:14.819Z,2.00
2019-03-31T15:59:53.581Z,1.70
2019-03-31T16:02:31.323Z,1.87
2019-03-31T16:05:12.695Z,2.25
2019-03-31T16:07:49.231Z,2.45
2019-03-31T16:10:27.389Z,1.65
2019-03-31T16:13:05.213Z,2.10
2019-03-31T16:15:42.611Z,1.85
2019-03-31T16:18:19.860Z,3.17
2019-03-31T16:20:57.744Z,1.90
2019-03-31T16:23:35.211Z,2.37
2019-03-31T16:26:12.832Z,2.40
2019-03-31T16:28:57.173Z,2.98
2019-03-31T16:31:34.509Z,2.65
2019-03-31T16:34:11.988Z,3.52
2019-03-31T16:36:55.127Z,2.08
2019-03-31T16:39:37.874Z,2.20
2019-03-31T16:42:11.999Z,2.25
2019-03-31T16:44:58.050Z,2.45
2019-03-31T16:47:28.386Z,2.65
2019-03-31T16:50:06.306Z,2.55
2019-03-31T16:52:44.993Z,2.58
2019-03-31T16:55:22.300Z,3.05
2019-03-31T16:58:00.126Z,3.92
2019-03-31T17:00:37.388Z,3.33
2019-03-31T17:03:18.069Z,3.98
2019-03-31T17:05:53.800Z,3.12
2019-03-31T17:08:36.815Z,3.62
2019-03-31T17:11:14.569Z,3.90
2019-03-31T17:13:51.869Z,2.55
2019-03-31T17:16:30.035Z,2.50
2019-03-31T17:19:07.577Z,2.35
2019-03-31T17:21:44.931Z,2.65
2019-03-31T17:24:22.885Z,1.98
2019-03-31T17:27:01.714Z,2.62
2019-03-31T17:29:39.763Z,3.17
2019-03-31T17:32:17.258Z,3.00
2019-03-31T17:34:54.929Z,2.20
2019-03-31T17:37:32.513Z,1.95
2019-03-31T17:40:10.362Z,2.37
2019-03-31T17:42:47.731Z,2.58
2019-03-31T17:45:25.101Z,2.77
2019-03-31T17:48:02.466Z,2.80
2019-03-31T17:50:39.775Z,2.95
2019-03-31T17:53:17.313Z,2.17
2019-03-31T17:55:54.645Z,2.50
2019-03-31T17:58:33.717Z,2.55
2019-03-31T18:01:11.490Z,2.60
2019-03-31T18:03:48.910Z,4.62
2019-03-31T18:06:28.475Z,4.33
2019-03-31T18:09:08.467Z,4.17
2019-03-31T18:11:45.786Z,4.85
2019-03-31T18:14:23.385Z,5.17
2019-03-31T18:17:00.666Z,4.50
2019-03-31T18:19:38.744Z,3.58
2019-03-31T18:22:17.064Z,3.80
2019-03-31T18:24:55.262Z,2.55
2019-03-31T18:27:32.558Z,3.08
2019-03-31T18:30:21.720Z,2.52
2019-03-31T18:33:00.603Z,2.22
2019-03-31T18:35:37.998Z,2.30
2019-03-31T18:38:15.459Z,1.72
2019-03-31T18:40:54.334Z,1.92
2019-03-31T18:43:31.518Z,2.42
2019-03-31T18:46:08.918Z,2.20
2019-03-31T18:48:46.814Z,2.58
2019-03-31T18:51:36.083Z,2.12
2019-03-31T18:54:32.531Z,2.42
2019-03-31T18:57:18.476Z,2.00
2019-03-31T19:00:10.648Z,1.90
2019-03-31T19:03:07.421Z,2.30
2019-03-31T19:06:02.519Z,2.65
2019-03-31T19:09:23.446Z,3.77
2019-03-31T19:12:25.621Z,3.30
2019-03-31T19:15:34.172Z,3.80
2019-03-31T19:18:28.057Z,3.50
2019-03-31T19:21:44.214Z,3.83
2019-03-31T19:24:34.477Z,5.72
2019-03-31T19:27:32.823Z,7.70
2019-03-31T19:30:19.231Z,7.75
2019-03-31T19:33:14.321Z,7.72
2019-03-31T19:36:00.021Z,9.40
2019-03-31T19:39:07.643Z,7.67
2019-03-31T19:41:54.935Z,6.65
2019-03-31T19:45:06.549Z,5.70
2019-03-31T19:48:01.027Z,5.28
2019-03-31T19:51:07.093Z,5.28
2019-03-31T19:54:00.846Z,5.55
2019-03-31T19:56:45.437Z,9.35
2019-03-31T19:59:45.208Z,8.25
2019-03-31T20:02:44.290Z,5.40
2019-03-31T20:05:43.885Z,4.83
2019-03-31T20:08:38.643Z,4.28
2019-03-31T20:11:26.211Z,5.85
2019-03-31T20:14:13.507Z,6.10
2019-03-31T20:17:06.202Z,4.58
2019-03-31T20:20:05.186Z,6.70
2019-03-31T20:22:52.396Z,9.10
2019-03-31T20:26:03.948Z,11.00
2019-03-31T20:28:48.242Z,12.30
2019-03-31T20:31:50.664Z,11.40
2019-03-31T20:34:50.359Z,10.00
2019-03-31T20:37:56.722Z,12.80
2019-03-31T20:40:38.953Z,14.38
2019-03-31T20:43:27.118Z,15.48
2019-03-31T20:46:04.756Z,12.93
2019-03-31T20:48:42.365Z,13.95
2019-03-31T20:51:21.240Z,13.95
2019-03-31T20:53:58.522Z,17.57
2019-03-31T20:56:35.902Z,16.30
2019-03-31T20:59:13.125Z,20.27
2019-03-31T21:02:02.297Z,23.67
2019-03-31T21:04:39.612Z,16.17
2019-03-31T21:07:17.423Z,15.15
2019-03-31T21:09:55.035Z,16.25
2019-03-31T21:12:32.336Z,14.23
2019-03-31T21:15:09.644Z,14.50
2019-03-31T21:17:47.055Z,15.70
2019-03-31T21:20:24.272Z,14.33
2019-03-31T21:23:01.855Z,13.58
2019-03-31T21:25:39.161Z,12.93
2019-03-31T21:28:16.509Z,12.90
2019-03-31T21:30:54.928Z,11.78
2019-03-31T21:33:32.159Z,11.12
2019-03-31T21:36:09.865Z,11.12
2019-03-31T21:38:47.509Z,12.60
2019-03-31T21:41:24.709Z,10.30
2019-03-31T21:44:02.177Z,11.15
2019-03-31T21:46:51.713Z,10.10
2019-03-31T21:49:29.247Z,9.15
2019-03-31T21:52:07.893Z,8.13
2019-03-31T21:54:45.591Z,10.05
2019-03-31T21:57:23.390Z,9.88
2019-03-31T22:00:01.110Z,9.28
2019-03-31T22:02:40.010Z,9.65
2019-03-31T22:05:17.129Z,11.33
2019-03-31T22:07:54.609Z,9.38
2019-03-31T22:10:31.908Z,11.88
2019-03-31T22:13:09.258Z,11.50
2019-03-31T22:15:46.556Z,11.93
2019-03-31T22:18:24.699Z,12.98
2019-03-31T22:21:02.092Z,12.45
2019-03-31T22:23:39.457Z,13.35
2019-03-31T22:26:19.451Z,13.62
2019-03-31T22:28:55.737Z,14.58
2019-03-31T22:31:33.714Z,15.70
2019-03-31T22:34:11.436Z,14.85
2019-03-31T22:36:49.270Z,16.57
2019-03-31T22:39:27.994Z,15.58
2019-03-31T22:42:05.375Z,15.05
2019-03-31T22:44:42.552Z,14.80
2019-03-31T22:47:19.804Z,13.22
2019-03-31T22:49:57.194Z,13.08
2019-03-31T22:52:35.332Z,13.50
2019-03-31T22:55:12.766Z,14.20
2019-03-31T22:57:50.555Z,15.78
2019-03-31T23:00:29.034Z,15.23
2019-03-31T23:03:06.206Z,15.43
2019-03-31T23:05:45.004Z,17.67
2019-03-31T23:08:22.302Z,17.17
2019-03-31T23:10:59.601Z,16.77
2019-03-31T23:13:36.905Z,18.62
2019-03-31T23:16:15.065Z,16.50
2019-03-31T23:18:52.485Z,16.65
2019-03-31T23:21:30.414Z,16.50
2019-03-31T23:24:07.753Z,18.65
2019-03-31T23:26:45.072Z,19.10
2019-03-31T23:29:22.309Z,17.90
2019-03-31T23:32:00.155Z,15.55
2019-03-31T23:34:38.640Z,15.83
2019-03-31T23:37:16.052Z,14.53
2019-03-31T23:39:53.283Z,11.95
2019-03-31T23:42:30.644Z,11.43
2019-03-31T23:45:08.865Z,10.00
2019-03-31T23:47:58.623Z,8.68
2019-03-31T23:50:36.408Z,7.95
2019-03-31T23:53:14.030Z,9.08
2019-03-31T23:55:51.794Z,10.10
2019-03-31T23:58:29.611Z,10.32
